Laurel, Ohio
Current Conditions -  °F | °C
As of 10:53 PM on Tuesday 21 Oct 2014 (Local Time) from KLUK Reporting Station
Overcast Overcast  
Wind Chill: 45°   Ceiling: 4800
Heat Index: 49°   Visibility: 10mi
Dew Point: 40°   Wind: 9mph
Humidity: 71%   Direction: 20°NNE
Pressure: 30.19"   Gusts: NA
Location:  38.9542°N, 84.2299°W
Report Text: KLUK 220253Z 02008KT 10SM OVC048 09/04 A3019 RMK AO2 SLP224 T00940044 53016
Loading
Personal Weather Stations






























Interactive Weather Map
Tropical Storm Tracking
New forecast layout! Learn more

10-Day Weather Forecast

Advertisements
Track Severe Weather on mobile